Terminal Aerodrome Forecast
Issued by NWS Albuquerque, NM

Home | Current Version | Previous Version | Text Only | Print | Product List | Glossary On
Versions: 1 2 3 4 5 6 7 8 9 10 11 12
159
FTUS45 KABQ 261144
TAFABQ
TAF
KABQ 261144Z 2612/2712 VRB04KT P6SM FEW250
     FM261900 33012G20KT P6SM SKC
     FM262300 06016KT P6SM SKC
     FM270200 08028G38KT P6SM SKC
     FM270800 09018G26KT P6SM SKC=

USA.gov is the U.S. government's official web portal to all federal, state and local government web resources and services.